Time;durP1;ratioP1;P1;durP2;ratioP2;P2;SDS_P1;SDS_P2;PMS_P1;PMS_P2;Temp;Humidity;BMP_temperature;BMP_pressure;BME280_temperature;BME280_humidity;BME280_pressure;Samples;Min_cycle;Max_cycle;Signal;HPM_P1;HPM_P2
2023/12/12 00:01:22;;;;;;;1.98;1.00;;;12.50;68.50;14.10;100565.00;;;;5007063;28;20205;-76
2023/12/12 00:03:49;;;;;;;3.42;1.00;;;12.50;68.50;14.10;100571.00;;;;5011771;28;20618;-75
2023/12/12 00:06:16;;;;;;;2.15;1.20;;;12.40;68.40;14.10;100570.00;;;;5010486;28;20197;-75
2023/12/12 00:08:43;;;;;;;6.18;1.50;;;12.40;68.40;14.00;100566.00;;;;5008418;28;20221;-75
2023/12/12 00:11:10;;;;;;;2.15;1.10;;;12.30;68.30;14.00;100568.00;;;;5007927;28;20200;-76
2023/12/12 00:13:37;;;;;;;4.35;1.77;;;12.30;68.30;13.90;100567.00;;;;5015421;28;20196;-76
2023/12/12 00:16:07;;;;;;;2.95;1.23;;;12.20;68.20;13.80;100568.00;;;;5023738;28;20567;-75
2023/12/12 00:18:35;;;;;;;2.15;1.10;;;12.20;68.30;13.80;100577.00;;;;5023776;28;20224;-75
2023/12/12 00:21:02;;;;;;;7.85;1.73;;;12.10;68.30;13.70;100583.00;;;;5024146;28;20242;-76
2023/12/12 00:23:29;;;;;;;2.20;1.17;;;12.00;68.20;13.70;100582.00;;;;5021008;28;20224;-76
2023/12/12 00:25:56;;;;;;;3.58;1.35;;;12.00;68.20;13.60;100577.00;;;;5021822;28;20695;-76
2023/12/12 00:28:23;;;;;;;4.45;1.30;;;11.90;68.20;13.60;100578.00;;;;5019654;28;20197;-76
2023/12/12 00:30:51;;;;;;;3.58;1.50;;;11.90;68.30;13.50;100582.00;;;;5021736;28;21412;-76
2023/12/12 00:33:19;;;;;;;3.58;1.23;;;11.80;68.20;13.50;100579.00;;;;5018180;28;20199;-75
2023/12/12 00:35:46;;;;;;;4.00;1.20;;;11.80;68.30;13.40;100581.00;;;;5028465;28;20232;-75
2023/12/12 00:38:13;;;;;;;3.30;1.52;;;11.70;68.30;13.40;100587.00;;;;5029637;28;20685;-75
2023/12/12 00:40:40;;;;;;;3.05;1.50;;;11.70;68.30;13.30;100579.00;;;;5030603;28;20193;-75
2023/12/12 00:43:07;;;;;;;7.72;1.63;;;11.60;68.30;13.30;100591.00;;;;5026499;28;20215;-75
2023/12/12 00:45:35;;;;;;;3.63;1.45;;;11.60;68.40;13.20;100586.00;;;;5025412;28;20785;-75
2023/12/12 00:48:02;;;;;;;3.63;1.60;;;11.50;68.30;13.20;100582.00;;;;5025681;28;20211;-75
2023/12/12 00:50:30;;;;;;;4.93;1.60;;;11.50;68.40;13.10;100587.00;;;;5030765;28;20254;-76
2023/12/12 00:52:57;;;;;;;2.70;1.70;;;11.40;68.40;13.10;100586.00;;;;5030734;28;20239;-75
2023/12/12 00:55:24;;;;;;;3.90;1.48;;;11.40;68.40;13.10;100581.00;;;;5016603;28;20203;-76
2023/12/12 00:57:51;;;;;;;2.05;1.38;;;11.30;68.30;13.00;100587.00;;;;5012740;28;20201;-76
2023/12/12 01:00:18;;;;;;;6.03;1.73;;;11.30;68.30;13.00;100579.00;;;;5018815;28;20201;-75
2023/12/12 01:02:45;;;;;;;2.35;1.45;;;11.30;68.40;12.90;100580.00;;;;5028811;28;20207;-75
2023/12/12 01:05:13;;;;;;;3.80;1.85;;;11.20;68.40;12.90;100582.00;;;;5028566;28;20677;-76
2023/12/12 01:07:41;;;;;;;1.98;1.67;;;11.20;68.50;12.80;100579.00;;;;5028760;28;20200;-75
2023/12/12 01:10:09;;;;;;;3.38;1.73;;;11.10;68.50;12.80;100575.00;;;;5018472;28;20232;-75
2023/12/12 01:12:37;;;;;;;2.80;1.58;;;11.10;68.50;12.70;100569.00;;;;5024696;28;20227;-75
2023/12/12 01:15:05;;;;;;;3.67;1.67;;;11.00;68.50;12.70;100581.00;;;;5027463;28;20211;-76
2023/12/12 01:17:32;;;;;;;2.25;1.88;;;11.00;68.50;12.70;100573.00;;;;5029553;28;20235;-76
2023/12/12 01:19:59;;;;;;;2.75;1.50;;;10.90;68.50;12.60;100573.00;;;;5018513;28;20209;-76
2023/12/12 01:22:26;;;;;;;5.00;1.70;;;10.90;68.50;12.60;100573.00;;;;5024003;28;20204;-75
2023/12/12 01:24:55;;;;;;;4.22;2.10;;;10.90;68.50;12.60;100571.00;;;;5021014;28;21011;-76
2023/12/12 01:27:22;;;;;;;3.42;1.70;;;10.80;68.40;12.50;100568.00;;;;5010264;28;20197;-76
2023/12/12 01:29:49;;;;;;;2.65;1.50;;;10.80;68.40;12.50;100562.00;;;;5011019;28;20236;-75
2023/12/12 01:32:16;;;;;;;3.53;1.50;;;10.80;68.50;12.50;100564.00;;;;5010599;28;20235;-75
2023/12/12 01:34:42;;;;;;;4.47;2.30;;;10.70;68.40;12.40;100569.00;;;;5010262;28;20201;-75
2023/12/12 01:37:09;;;;;;;3.03;1.58;;;10.70;68.40;12.40;100562.00;;;;5010777;28;20540;-76
2023/12/12 01:39:36;;;;;;;2.78;1.60;;;10.60;68.30;12.40;100571.00;;;;5014016;28;20205;-76
2023/12/12 01:42:05;;;;;;;2.80;1.67;;;10.60;68.40;12.30;100560.00;;;;5028964;28;20196;-75
2023/12/12 01:44:32;;;;;;;3.22;1.60;;;10.60;68.40;12.30;100557.00;;;;5015050;28;20189;-76
2023/12/12 01:46:59;;;;;;;3.88;1.52;;;10.50;68.40;12.20;100552.00;;;;5010458;28;20212;-76
2023/12/12 01:49:26;;;;;;;8.38;2.38;;;10.50;68.40;12.20;100549.00;;;;5010795;28;20228;-75
2023/12/12 01:51:53;;;;;;;4.78;2.00;;;10.50;69.00;12.20;100544.00;;;;5015480;28;20197;-75
2023/12/12 01:54:21;;;;;;;3.17;1.88;;;10.40;68.30;12.10;100548.00;;;;5016452;28;20225;-76
2023/12/12 01:56:53;;;;;;;3.53;1.70;;;10.40;68.30;12.00;100548.00;;;;5011553;28;20208;-76
2023/12/12 01:59:24;;;;;;;5.55;2.08;;;10.30;68.30;12.00;100546.00;;;;5010430;28;20199;-76
2023/12/12 02:01:52;;;;;;;2.50;1.42;;;10.30;68.30;12.00;100537.00;;;;5010871;28;20200;-75
2023/12/12 02:04:20;;;;;;;2.88;1.88;;;10.20;68.20;11.90;100535.00;;;;5010364;28;20193;-75
2023/12/12 02:06:49;;;;;;;4.97;1.85;;;10.20;68.20;11.90;100542.00;;;;5023784;28;20211;-75
2023/12/12 02:09:16;;;;;;;3.47;2.30;;;10.20;68.30;11.90;100540.00;;;;5025372;28;20808;-76
2023/12/12 02:11:43;;;;;;;5.07;2.70;;;10.10;68.20;11.80;100530.00;;;;5011454;28;20197;-75
2023/12/12 02:14:10;;;;;;;4.20;2.35;;;10.00;68.20;11.80;100536.00;;;;5019281;28;20204;-76
2023/12/12 02:16:39;;;;;;;3.40;2.20;;;10.00;68.20;11.70;100535.00;;;;5022428;28;20231;-75
2023/12/12 02:19:06;;;;;;;4.18;2.60;;;9.90;68.20;11.70;100531.00;;;;5031387;28;20228;-75
2023/12/12 02:21:35;;;;;;;4.50;2.53;;;9.90;68.20;11.70;100538.00;;;;5016526;28;20197;-75
2023/12/12 02:24:02;;;;;;;4.25;1.88;;;9.90;68.20;11.60;100527.00;;;;5021891;28;20223;-75
2023/12/12 02:26:28;;;;;;;3.58;2.10;;;9.80;68.20;11.60;100542.00;;;;5010401;28;20220;-76
2023/12/12 02:28:56;;;;;;;5.22;2.60;;;9.80;68.20;11.60;100532.00;;;;5013814;28;20216;-75
2023/12/12 02:31:23;;;;;;;3.25;2.38;;;9.80;68.20;11.50;100547.00;;;;5020995;28;20904;-75
2023/12/12 02:33:50;;;;;;;3.00;2.28;;;9.70;68.30;11.50;100542.00;;;;5011221;28;20201;-75
2023/12/12 02:36:17;;;;;;;3.53;1.95;;;9.70;68.30;11.40;100541.00;;;;5013017;28;20199;-75
2023/12/12 02:38:45;;;;;;;3.08;2.13;;;9.60;68.20;11.40;100535.00;;;;5011828;28;20197;-76
2023/12/12 02:41:13;;;;;;;2.03;1.63;;;9.60;68.30;11.40;100538.00;;;;5011584;28;20563;-75
2023/12/12 02:43:40;;;;;;;5.97;1.80;;;9.60;68.30;11.40;100539.00;;;;5015122;28;20200;-75
2023/12/12 02:46:07;;;;;;;3.17;2.50;;;9.50;68.30;11.30;100542.00;;;;5010794;28;20686;-76
2023/12/12 02:48:34;;;;;;;3.70;2.00;;;9.50;68.40;11.40;100544.00;;;;5008347;28;20197;-76
2023/12/12 02:51:01;;;;;;;3.03;2.30;;;9.50;68.60;11.40;100536.00;;;;5009629;28;20224;-75
2023/12/12 02:53:28;;;;;;;3.55;2.00;;;9.50;68.70;11.40;100544.00;;;;5021777;28;20216;-75
2023/12/12 02:55:56;;;;;;;4.82;2.72;;;9.50;68.90;11.40;100539.00;;;;5017867;28;20208;-76
2023/12/12 02:58:23;;;;;;;2.88;2.20;;;9.50;69.00;11.40;100529.00;;;;5018299;28;20196;-76
2023/12/12 03:00:50;;;;;;;3.28;1.98;;;9.50;69.00;11.40;100530.00;;;;5016114;28;20208;-75
2023/12/12 03:03:17;;;;;;;2.67;1.90;;;9.50;69.10;11.40;100527.00;;;;5019355;28;20208;-76
2023/12/12 03:05:44;;;;;;;5.28;2.00;;;9.50;69.10;11.40;100526.00;;;;5009167;28;20228;-76
2023/12/12 03:08:11;;;;;;;3.65;2.17;;;9.60;69.20;11.50;100525.00;;;;5008957;28;20220;-76
2023/12/12 03:10:38;;;;;;;3.10;2.00;;;9.60;69.20;11.50;100520.00;;;;5010545;28;20223;-76
2023/12/12 03:13:06;;;;;;;3.60;2.38;;;9.60;69.10;11.50;100518.00;;;;5021042;28;20651;-75
2023/12/12 03:15:33;;;;;;;2.88;2.13;;;9.60;69.10;11.50;100517.00;;;;5010338;28;20571;-76
2023/12/12 03:18:00;;;;;;;4.95;2.22;;;9.60;69.10;11.40;100509.00;;;;5029195;28;20255;-76
2023/12/12 03:20:27;;;;;;;4.10;2.70;;;9.60;69.00;11.40;100513.00;;;;5009204;28;20212;-75
2023/12/12 03:22:54;;;;;;;2.97;2.63;;;9.60;69.00;11.40;100514.00;;;;5007726;28;20201;-76
2023/12/12 03:25:21;;;;;;;3.42;2.35;;;9.60;69.00;11.40;100504.00;;;;5018206;28;20581;-76
2023/12/12 03:27:48;;;;;;;5.28;2.85;;;9.60;68.90;11.40;100498.00;;;;5008586;28;20201;-75
2023/12/12 03:30:17;;;;;;;2.95;2.38;;;9.50;68.80;11.40;100501.00;;;;5015613;28;20225;-76
2023/12/12 03:32:44;;;;;;;2.47;2.22;;;9.50;68.80;11.30;100506.00;;;;5009744;28;20196;-75
2023/12/12 03:35:11;;;;;;;7.35;2.67;;;9.50;68.70;11.30;100502.00;;;;5008175;28;20244;-75
2023/12/12 03:37:38;;;;;;;2.78;2.35;;;9.50;68.70;11.30;100504.00;;;;5012990;28;20201;-75
2023/12/12 03:40:06;;;;;;;3.15;2.75;;;9.50;68.70;11.30;100512.00;;;;5014581;28;20587;-75
2023/12/12 03:42:33;;;;;;;4.63;2.05;;;9.50;68.60;11.30;100503.00;;;;5008754;28;20199;-75
2023/12/12 03:45:00;;;;;;;5.18;2.63;;;9.40;68.60;11.20;100511.00;;;;5015458;28;20204;-75
2023/12/12 03:47:28;;;;;;;4.95;3.20;;;9.40;68.60;11.20;100505.00;;;;5007997;28;20682;-75
2023/12/12 03:49:55;;;;;;;3.55;2.88;;;9.40;68.60;11.20;100499.00;;;;5020223;28;20236;-75
2023/12/12 03:52:22;;;;;;;4.63;2.60;;;9.40;68.70;11.20;100494.00;;;;5008626;28;20580;-76
2023/12/12 03:54:49;;;;;;;4.45;3.20;;;9.30;68.70;11.20;100490.00;;;;5009474;28;20217;-75
2023/12/12 03:57:16;;;;;;;4.22;3.42;;;9.40;68.80;11.20;100491.00;;;;5008141;28;20819;-76
2023/12/12 03:59:44;;;;;;;5.15;3.08;;;9.30;69.40;11.10;100494.00;;;;5008815;28;20204;-75
2023/12/12 04:02:11;;;;;;;5.00;3.38;;;9.30;68.80;11.10;100489.00;;;;5018298;28;20200;-75
2023/12/12 04:04:39;;;;;;;5.78;3.25;;;9.30;68.90;11.10;100485.00;;;;5022311;28;20223;-75
2023/12/12 04:07:06;;;;;;;4.35;3.35;;;9.30;68.90;11.10;100498.00;;;;5030267;28;20200;-76
2023/12/12 04:09:33;;;;;;;4.55;3.60;;;9.30;69.00;11.10;100493.00;;;;5024771;28;20200;-75
2023/12/12 04:12:00;;;;;;;6.57;3.75;;;9.30;69.00;11.20;100493.00;;;;5014760;28;20753;-75
2023/12/12 04:14:27;;;;;;;5.78;3.42;;;9.30;69.20;11.20;100488.00;;;;5022343;28;20645;-75
2023/12/12 04:16:54;;;;;;;8.32;3.58;;;9.30;69.30;11.20;100491.00;;;;5031045;28;20215;-75
2023/12/12 04:19:21;;;;;;;5.28;4.15;;;9.30;69.40;11.20;100484.00;;;;5026006;28;20225;-75
2023/12/12 04:21:50;;;;;;;4.55;3.28;;;9.30;69.40;11.30;100480.00;;;;5013856;28;20663;-75
2023/12/12 04:24:17;;;;;;;4.32;3.38;;;9.40;69.50;11.30;100480.00;;;;5023892;28;20216;-75
2023/12/12 04:26:44;;;;;;;7.03;4.05;;;9.40;69.60;11.30;100474.00;;;;5011175;28;20201;-75
2023/12/12 04:29:11;;;;;;;5.00;3.97;;;9.40;69.70;11.40;100473.00;;;;5022368;28;20204;-75
2023/12/12 04:31:38;;;;;;;5.45;3.10;;;9.50;69.70;11.40;100471.00;;;;5029947;28;20228;-76
2023/12/12 04:34:05;;;;;;;5.68;4.50;;;9.50;69.60;11.40;100472.00;;;;5011719;28;20200;-75
2023/12/12 04:36:33;;;;;;;4.85;4.05;;;9.50;69.60;11.40;100470.00;;;;5011970;28;20197;-75
2023/12/12 04:39:01;;;;;;;5.20;3.70;;;9.50;69.60;11.40;100465.00;;;;5013224;28;20327;-75
2023/12/12 04:41:28;;;;;;;5.50;4.10;;;9.60;69.60;11.50;100471.00;;;;5013307;28;20212;-75
2023/12/12 04:43:55;;;;;;;5.18;3.90;;;9.60;69.50;11.50;100468.00;;;;5023573;28;20204;-75
2023/12/12 04:46:22;;;;;;;6.63;4.22;;;9.60;69.50;11.50;100461.00;;;;5026634;28;20203;-75
2023/12/12 04:48:49;;;;;;;5.75;4.00;;;9.60;69.30;11.40;100464.00;;;;5030701;28;20204;-75
2023/12/12 04:51:16;;;;;;;6.05;4.00;;;9.60;69.20;11.40;100470.00;;;;5012265;28;20209;-75
2023/12/12 04:53:43;;;;;;;6.65;4.78;;;9.60;69.20;11.40;100454.00;;;;5011062;28;20601;-75
2023/12/12 04:56:12;;;;;;;6.40;4.28;;;9.60;69.20;11.40;100457.00;;;;5014324;28;20671;-76
2023/12/12 04:58:39;;;;;;;6.18;3.80;;;9.60;69.10;11.40;100456.00;;;;5020340;28;20199;-75
2023/12/12 05:01:06;;;;;;;6.00;3.63;;;9.60;69.00;11.40;100445.00;;;;5030775;28;20208;-75
2023/12/12 05:03:33;;;;;;;6.90;4.70;;;9.60;69.00;11.40;100443.00;;;;5025739;28;20204;-76
2023/12/12 05:06:01;;;;;;;6.70;3.90;;;9.60;69.00;11.40;100440.00;;;;5030641;28;20200;-76
2023/12/12 05:08:28;;;;;;;4.95;3.78;;;9.60;68.80;11.30;100429.00;;;;5030725;28;20196;-76
2023/12/12 05:10:55;;;;;;;10.77;4.28;;;9.50;68.80;11.30;100428.00;;;;5029960;28;20227;-75
2023/12/12 05:13:24;;;;;;;12.65;4.20;;;9.50;68.80;11.30;100429.00;;;;5023546;28;20200;-75
2023/12/12 05:15:51;;;;;;;6.97;4.47;;;9.50;68.90;11.30;100430.00;;;;5023513;28;20212;-75
2023/12/12 05:18:18;;;;;;;5.30;4.05;;;9.50;68.90;11.30;100425.00;;;;5022809;28;20649;-75
2023/12/12 05:20:45;;;;;;;5.53;4.35;;;9.50;69.00;11.30;100423.00;;;;5022024;28;20210;-75
2023/12/12 05:23:13;;;;;;;7.50;4.45;;;9.50;69.10;11.30;100422.00;;;;5014597;28;20589;-75
2023/12/12 05:25:41;;;;;;;6.45;4.60;;;9.50;69.20;11.40;100422.00;;;;5021911;28;20200;-75
2023/12/12 05:28:08;;;;;;;6.60;4.93;;;9.50;69.40;11.40;100419.00;;;;5030658;28;20235;-75
2023/12/12 05:30:36;;;;;;;6.90;4.90;;;9.50;69.50;11.40;100420.00;;;;5029558;28;20232;-76
2023/12/12 05:33:03;;;;;;;7.45;5.28;;;9.50;69.70;11.40;100423.00;;;;5015615;28;20664;-75
2023/12/12 05:35:31;;;;;;;8.68;4.93;;;9.60;69.80;11.50;100424.00;;;;5014171;28;20196;-76
2023/12/12 05:37:57;;;;;;;8.35;4.85;;;9.60;69.80;11.50;100424.00;;;;5028031;28;20210;-76
2023/12/12 05:40:24;;;;;;;7.00;4.75;;;9.60;69.90;11.60;100428.00;;;;5026623;28;20532;-76
2023/12/12 05:42:51;;;;;;;7.25;5.60;;;9.70;70.00;11.60;100425.00;;;;5022664;28;20582;-75
2023/12/12 05:45:18;;;;;;;8.25;5.07;;;9.70;70.00;11.70;100417.00;;;;5016802;28;20208;-75
2023/12/12 05:47:47;;;;;;;9.40;4.97;;;9.80;70.10;11.70;100419.00;;;;5026318;28;20207;-76
2023/12/12 05:50:14;;;;;;;9.98;5.35;;;9.80;70.10;11.70;100414.00;;;;5015150;28;20208;-75
2023/12/12 05:52:41;;;;;;;8.48;5.57;;;9.90;70.20;11.80;100416.00;;;;5009285;28;20216;-75
2023/12/12 05:55:09;;;;;;;11.32;5.53;;;9.90;70.20;11.80;100430.00;;;;5010970;28;20217;-75
2023/12/12 05:57:36;;;;;;;6.97;5.00;;;9.90;70.20;11.90;100422.00;;;;5021520;28;20204;-75
2023/12/12 06:00:06;;;;;;;9.30;5.05;;;10.00;70.30;11.90;100425.00;;;;5029734;28;20228;-76
2023/12/12 06:02:33;;;;;;;8.77;5.00;;;10.00;70.30;12.00;100424.00;;;;5021957;28;20208;-76
2023/12/12 06:05:07;;;;;;;6.82;4.93;;;10.10;70.30;12.00;100418.00;;;;5009785;28;20204;-76
2023/12/12 06:07:34;;;;;;;18.88;6.07;;;10.10;70.20;12.00;100420.00;;;;5019524;28;20196;-76
2023/12/12 06:10:01;;;;;;;8.98;5.10;;;10.20;70.30;12.10;100421.00;;;;5009757;28;20549;-76
2023/12/12 06:12:28;;;;;;;10.48;5.22;;;10.20;70.30;12.10;100417.00;;;;5009109;28;20236;-76
2023/12/12 06:14:55;;;;;;;11.73;6.18;;;10.20;70.30;12.10;100416.00;;;;5011615;28;20201;-76
2023/12/12 06:17:23;;;;;;;9.10;4.65;;;10.30;70.30;12.20;100418.00;;;;5019167;28;20271;-76
2023/12/12 06:19:50;;;;;;;8.27;4.75;;;10.30;70.30;12.20;100415.00;;;;5018809;28;20200;-76
2023/12/12 06:22:18;;;;;;;20.80;6.43;;;10.40;70.40;12.30;100419.00;;;;5012637;28;20242;-76
2023/12/12 06:24:46;;;;;;;10.25;5.68;;;10.40;70.40;12.30;100406.00;;;;5013233;28;20205;-76
2023/12/12 06:27:13;;;;;;;12.68;5.47;;;10.40;70.30;12.30;100400.00;;;;5013721;28;20662;-76
2023/12/12 06:29:40;;;;;;;10.50;5.15;;;10.50;70.40;12.40;100406.00;;;;5019459;28;20193;-75
2023/12/12 06:32:08;;;;;;;8.38;6.00;;;10.50;70.40;12.40;100403.00;;;;5017603;28;20228;-76
2023/12/12 06:34:35;;;;;;;10.20;5.22;;;10.50;70.30;12.40;100405.00;;;;5009634;28;20197;-75
2023/12/12 06:37:03;;;;;;;10.32;5.68;;;10.60;70.40;12.50;100391.00;;;;5012295;28;20201;-76
2023/12/12 06:39:31;;;;;;;11.63;5.45;;;10.60;70.40;12.50;100385.00;;;;5012034;28;20220;-75
2023/12/12 06:41:58;;;;;;;10.35;5.07;;;10.60;70.40;12.50;100376.00;;;;5017954;28;20649;-76
2023/12/12 06:44:25;;;;;;;12.65;4.95;;;10.70;70.40;12.60;100389.00;;;;5013911;28;20205;-76
2023/12/12 06:46:52;;;;;;;9.00;4.53;;;10.70;70.40;12.60;100379.00;;;;5015825;28;20211;-76
2023/12/12 06:49:19;;;;;;;11.23;5.60;;;10.70;70.40;12.60;100381.00;;;;5017898;28;20201;-76
2023/12/12 06:51:46;;;;;;;10.38;5.07;;;10.80;70.50;12.70;100377.00;;;;5009471;28;20307;-75
2023/12/12 06:54:13;;;;;;;9.13;4.63;;;10.80;70.50;12.70;100370.00;;;;5022447;28;20220;-75
2023/12/12 06:56:41;;;;;;;7.85;4.43;;;10.80;70.50;12.70;100374.00;;;;5010301;28;20618;-75
2023/12/12 06:59:09;;;;;;;7.68;4.13;;;10.90;70.50;12.80;100373.00;;;;5012312;28;20201;-75
2023/12/12 07:01:36;;;;;;;9.82;4.93;;;10.90;70.50;12.80;100365.00;;;;5010018;28;20204;-75
2023/12/12 07:04:03;;;;;;;12.60;5.05;;;10.90;70.50;12.80;100373.00;;;;5012250;28;20220;-76
2023/12/12 07:06:29;;;;;;;6.97;4.35;;;11.00;70.60;12.80;100362.00;;;;5022736;28;20219;-75
2023/12/12 07:08:57;;;;;;;8.32;4.85;;;11.00;70.60;12.90;100368.00;;;;5049065;28;20203;-75
2023/12/12 07:11:24;;;;;;;5.68;3.80;;;11.00;70.60;12.90;100364.00;;;;5049243;28;20223;-75
2023/12/12 07:13:52;;;;;;;8.23;3.65;;;11.10;71.30;12.90;100364.00;;;;5031831;28;20569;-76
2023/12/12 07:16:20;;;;;;;8.05;4.65;;;11.10;70.60;13.00;100368.00;;;;5021634;28;20193;-75
2023/12/12 07:18:47;;;;;;;9.60;4.43;;;11.10;70.60;13.00;100365.00;;;;5025628;28;20228;-76
2023/12/12 07:21:15;;;;;;;8.50;4.07;;;11.10;70.60;13.00;100362.00;;;;5026471;28;20196;-76
2023/12/12 07:23:42;;;;;;;9.73;3.90;;;11.20;70.60;13.10;100357.00;;;;5028805;28;20207;-76
2023/12/12 07:26:09;;;;;;;7.93;4.80;;;11.20;70.60;13.10;100355.00;;;;5028254;28;20338;-76
2023/12/12 07:28:36;;;;;;;6.70;4.07;;;11.20;70.60;13.10;100348.00;;;;5028234;28;20204;-76
2023/12/12 07:31:05;;;;;;;6.80;3.85;;;11.30;70.60;13.10;100357.00;;;;5020503;28;20216;-75
2023/12/12 07:33:32;;;;;;;8.35;3.70;;;11.30;70.60;13.20;100352.00;;;;5028222;28;20192;-76
2023/12/12 07:35:59;;;;;;;6.93;3.97;;;11.30;70.60;13.20;100343.00;;;;5027317;28;20220;-76
2023/12/12 07:38:25;;;;;;;8.10;3.88;;;11.40;70.60;13.20;100340.00;;;;5012384;28;20224;-76
2023/12/12 07:40:52;;;;;;;6.82;4.30;;;11.40;70.60;13.30;100341.00;;;;5018906;28;20203;-75
2023/12/12 07:43:20;;;;;;;6.97;4.22;;;11.40;70.60;13.30;100337.00;;;;5012504;28;20220;-76
2023/12/12 07:45:46;;;;;;;7.35;4.47;;;11.40;70.60;13.30;100326.00;;;;5008092;28;20201;-76
2023/12/12 07:48:15;;;;;;;5.05;3.55;;;11.40;70.60;13.30;100335.00;;;;5009193;28;20726;-76
2023/12/12 07:50:42;;;;;;;5.95;4.07;;;11.50;70.70;13.40;100321.00;;;;5017349;28;20567;-76
2023/12/12 07:53:08;;;;;;;5.30;3.60;;;11.50;70.60;13.40;100325.00;;;;5015996;28;20713;-76
2023/12/12 07:55:36;;;;;;;11.35;4.80;;;11.50;70.60;13.40;100323.00;;;;5007050;28;20232;-76
2023/12/12 07:58:03;;;;;;;10.07;4.63;;;11.50;70.60;13.50;100319.00;;;;5008196;28;20197;-75
2023/12/12 08:00:30;;;;;;;6.40;4.00;;;11.60;70.60;13.50;100320.00;;;;5007558;28;20263;-76
2023/12/12 08:02:57;;;;;;;7.63;4.00;;;11.60;70.60;13.50;100308.00;;;;5007832;28;20196;-76
2023/12/12 08:05:26;;;;;;;9.27;4.40;;;11.60;70.60;13.50;100298.00;;;;5007683;28;20257;-76
2023/12/12 08:07:53;;;;;;;7.78;4.82;;;11.60;70.60;13.60;100308.00;;;;5007574;28;20239;-76
2023/12/12 08:10:20;;;;;;;7.38;4.22;;;11.70;70.60;13.60;100308.00;;;;5018460;28;20200;-76
2023/12/12 08:12:49;;;;;;;11.77;4.88;;;11.70;70.70;13.60;100306.00;;;;5020385;28;20784;-76
2023/12/12 08:15:16;;;;;;;9.65;4.85;;;11.70;70.70;13.60;100302.00;;;;5014210;28;20193;-76
2023/12/12 08:17:43;;;;;;;10.23;4.80;;;11.70;70.70;13.70;100304.00;;;;5012251;28;20228;-76
2023/12/12 08:20:10;;;;;;;10.30;4.32;;;11.80;70.70;13.70;100295.00;;;;5017155;28;20212;-76
2023/12/12 08:22:38;;;;;;;11.80;4.70;;;11.80;70.70;13.70;100296.00;;;;5008151;28;20286;-76
2023/12/12 08:25:07;;;;;;;11.85;4.78;;;11.80;70.60;13.70;100299.00;;;;5007457;28;21627;-76
2023/12/12 08:27:34;;;;;;;11.13;4.40;;;11.90;70.70;13.70;100294.00;;;;5008104;28;20228;-75
2023/12/12 08:30:04;;;;;;;12.60;5.05;;;11.90;70.70;13.70;100283.00;;;;5013558;28;20204;-76
2023/12/12 08:32:31;;;;;;;15.75;5.05;;;11.90;70.60;13.80;100289.00;;;;5027867;28;20231;-76
2023/12/12 08:34:58;;;;;;;10.13;4.32;;;11.90;70.60;13.80;100287.00;;;;5026035;28;20203;-76
2023/12/12 08:37:25;;;;;;;11.38;4.43;;;11.90;70.60;13.80;100283.00;;;;5027596;28;20205;-76
2023/12/12 08:39:53;;;;;;;9.93;3.25;;;12.00;70.70;13.80;100279.00;;;;5023717;28;20199;-76
2023/12/12 08:42:20;;;;;;;6.18;3.90;;;12.00;71.40;13.90;100279.00;;;;5027030;28;20673;-76
2023/12/12 08:44:47;;;;;;;10.93;3.78;;;12.00;70.60;13.90;100279.00;;;;5011212;28;20232;-76
2023/12/12 08:47:15;;;;;;;8.38;3.60;;;12.00;70.70;13.90;100268.00;;;;5015403;28;20201;-76
2023/12/12 08:49:42;;;;;;;12.82;3.70;;;12.10;70.80;14.00;100264.00;;;;5014559;28;20212;-76
2023/12/12 08:52:10;;;;;;;10.85;3.90;;;12.10;70.80;14.00;100265.00;;;;5028215;28;20228;-76
2023/12/12 08:54:37;;;;;;;9.80;3.28;;;12.10;70.80;14.00;100264.00;;;;5027802;28;20224;-76
2023/12/12 08:57:06;;;;;;;19.00;3.75;;;12.20;70.80;14.00;100269.00;;;;5018371;28;20642;-76
2023/12/12 08:59:33;;;;;;;10.55;3.60;;;12.20;70.90;14.10;100255.00;;;;5010735;28;20284;-75
2023/12/12 09:02:02;;;;;;;10.50;3.97;;;12.20;70.80;14.10;100256.00;;;;5021054;28;20216;-76
2023/12/12 09:04:29;;;;;;;8.50;3.08;;;12.20;70.90;14.10;100253.00;;;;5027115;28;20220;-76
2023/12/12 09:06:55;;;;;;;8.15;3.10;;;12.20;70.90;14.20;100258.00;;;;5030574;28;20567;-76
2023/12/12 09:09:23;;;;;;;7.25;3.15;;;12.30;71.00;14.20;100247.00;;;;5030179;28;20192;-76
2023/12/12 09:11:50;;;;;;;6.95;3.15;;;12.40;71.00;14.20;100247.00;;;;5030135;28;20235;-76
2023/12/12 09:14:18;;;;;;;7.15;3.10;;;12.40;71.00;14.30;100248.00;;;;5025929;28;20205;-76
2023/12/12 09:16:45;;;;;;;8.98;2.60;;;12.40;71.00;14.30;100240.00;;;;5009857;28;20685;-76
2023/12/12 09:19:15;;;;;;;11.48;3.72;;;12.40;71.00;14.30;100241.00;;;;5010715;28;20295;-76
2023/12/12 09:21:42;;;;;;;11.57;3.83;;;12.40;71.00;14.40;100236.00;;;;5009804;28;20209;-76
2023/12/12 09:24:09;;;;;;;6.75;2.63;;;12.50;71.10;14.40;100243.00;;;;5017957;28;20656;-76
2023/12/12 09:26:36;;;;;;;7.25;3.15;;;12.50;71.10;14.40;100234.00;;;;5015685;28;20215;-75
2023/12/12 09:29:04;;;;;;;10.02;3.40;;;12.50;71.20;14.50;100231.00;;;;5030686;28;20258;-75
2023/12/12 09:31:34;;;;;;;13.20;3.72;;;12.60;71.30;14.50;100225.00;;;;5030456;28;20211;-75
2023/12/12 09:34:02;;;;;;;8.93;3.17;;;12.70;71.20;14.60;100223.00;;;;5028661;28;20254;-75
2023/12/12 09:36:29;;;;;;;10.43;2.67;;;12.70;71.10;14.60;100215.00;;;;5023947;28;20244;-76
2023/12/12 09:38:57;;;;;;;7.97;2.97;;;12.70;71.10;14.60;100208.00;;;;5029153;28;20201;-76
2023/12/12 09:41:25;;;;;;;11.65;4.30;;;12.80;71.10;14.70;100211.00;;;;5030383;28;20193;-76
2023/12/12 09:43:52;;;;;;;6.85;2.92;;;12.80;71.10;14.70;100199.00;;;;5029509;28;20200;-76
2023/12/12 09:46:20;;;;;;;5.72;2.45;;;12.80;71.10;14.70;100202.00;;;;5027399;28;20606;-75
2023/12/12 09:48:51;;;;;;;10.48;3.80;;;12.90;71.10;14.70;100195.00;;;;5009842;28;20200;-76
2023/12/12 09:51:18;;;;;;;8.77;3.53;;;12.90;71.00;14.80;100190.00;;;;5011454;28;20216;-76
2023/12/12 09:53:47;;;;;;;11.65;3.10;;;12.90;71.10;14.80;100181.00;;;;5010582;28;20243;-76
2023/12/12 09:56:17;;;;;;;6.90;3.08;;;13.00;71.00;14.80;100176.00;;;;5010295;28;20200;-77
2023/12/12 09:58:46;;;;;;;8.98;3.67;;;13.00;71.00;14.80;100171.00;;;;5010015;28;20189;-77
2023/12/12 10:01:14;;;;;;;11.82;3.33;;;13.00;71.00;14.90;100171.00;;;;5010385;28;20209;-76
2023/12/12 10:03:41;;;;;;;8.75;4.25;;;13.00;70.90;14.90;100160.00;;;;5019353;28;20196;-76
2023/12/12 10:06:11;;;;;;;5.95;3.17;;;13.00;70.80;14.90;100151.00;;;;5030057;28;20208;-76
2023/12/12 10:08:39;;;;;;;8.90;3.67;;;13.10;70.80;14.90;100156.00;;;;5011515;28;20201;-77
2023/12/12 10:11:09;;;;;;;10.98;3.17;;;13.10;70.80;14.90;100156.00;;;;5010208;28;20655;-76
2023/12/12 10:13:58;;;;;;;12.43;3.58;;;13.10;70.80;14.80;100146.00;;;;5012179;28;20220;-76
2023/12/12 10:16:26;;;;;;;7.82;2.75;;;13.10;70.80;14.90;100147.00;;;;5024631;28;20203;-77
2023/12/12 10:18:53;;;;;;;9.55;3.00;;;13.10;70.70;14.90;100137.00;;;;5022436;28;20312;-77
2023/12/12 10:21:22;;;;;;;11.52;3.40;;;13.20;70.80;15.00;100133.00;;;;5017137;28;20702;-76
2023/12/12 10:23:51;;;;;;;19.67;3.85;;;13.20;70.80;15.00;100134.00;;;;5016870;28;20211;-76
2023/12/12 10:26:25;;;;;;;8.35;2.95;;;13.20;70.80;15.00;100142.00;;;;5018886;28;20200;-77
2023/12/12 10:28:54;;;;;;;10.38;2.75;;;13.20;70.80;15.00;100135.00;;;;5027279;28;20219;-77
2023/12/12 10:31:22;;;;;;;12.32;3.17;;;13.30;70.80;15.10;100132.00;;;;5027643;28;20236;-77
2023/12/12 10:33:49;;;;;;;9.68;3.38;;;13.30;70.90;15.10;100114.00;;;;5028200;28;20227;-77
2023/12/12 10:36:16;;;;;;;9.93;2.95;;;13.30;70.90;15.20;100114.00;;;;5028171;28;20204;-77
2023/12/12 10:38:45;;;;;;;9.23;2.67;;;13.30;71.00;15.20;100106.00;;;;5024918;28;20201;-77
2023/12/12 10:41:15;;;;;;;7.72;2.85;;;13.40;71.10;15.30;100109.00;;;;5012841;28;20265;-78
2023/12/12 10:43:43;;;;;;;10.02;4.00;;;13.40;71.10;15.30;100100.00;;;;5012317;28;20201;-76
2023/12/12 10:46:13;;;;;;;7.10;2.70;;;13.50;71.00;15.40;100099.00;;;;5009758;28;20201;-77
2023/12/12 10:48:46;;;;;;;10.88;3.22;;;13.50;70.90;15.40;100094.00;;;;5009469;28;20200;-77